Troy, NY

4:53 AM EDT on August 31, 2015 (GMT -0400)
Brunswick, NY | | Change Station
CLOSE
Current Station
Personal Weather Station
Location: Troy, NY
Elevation: 853 ft
Nearby Weather Stations

Elev 853 ft 42.77 °N, 73.58 °W | Updated 7 minutes ago

Fog
Fog
67.2 °F
Feels Like 67.2 °F
N
4.0
Wind Variable Wind from SW
Gusts 6.0 mph

Today
High -- | Low -- °F
--% Chance of Precip.
Yesterday
High -- | Low -- °F
Precip. -- in
6:17 AM 7:31 PM
Waning Gibbous, 96% visible
Pressure 30.00 in
Visibility 10.0 miles
Clouds Few 1000 ft
Few 5500 ft
Few 26000 ft
Dew Point 65 °F
Humidity 94%
Rainfall 0.00 in
Snow Depth Not available.
UV 0 out of 12
Pollen 9.20 out of 12
Air Quality Not available.
Flu Activity Not available.
METAR KALB 310751Z 00000KT 10SM MIFG FEW010 FEW055 FEW260 19/18 A3000 RMK AO2 SLP157 MIFG S T01940178 $
Pressure 30.00 in
Visibility 10.0 miles
Clouds Few 1000 ft
Few 5500 ft
Few 26000 ft
Dew Point 65 °F
Humidity 94%
Rainfall 0.00 in
Snow Depth Not available.
UV 0 out of 12
Pollen 9.20 out of 12
Air Quality Not available.
Flu Activity Not available.
METAR KALB 310751Z 00000KT 10SM MIFG FEW010 FEW055 FEW260 19/18 A3000 RMK AO2 SLP157 MIFG S T01940178 $

10-Day Weather Forecast

×

Almanac

Astronomy

Aug. 31, 2015 Rise Set
Actual Time
Civil Twilight
Nautical Twilight
Astronomical Twilight
Moon
Length of Visible Light
Length of Day
Tomorrow will be .
, % of the Moon is Illuminated

Today's Extremes

State Highs State Lows

Community

WunderPhotos

Upload Photos

1,851,220 photos uploaded!

WunderBlogs® & News

Nearby

Air Quality

  Air Quality AQ Index Pollutant
Not available.

Snow Depth

Station Depth Elevation

Earthquake Activity

City Distance Mag. Time & Date
Minimum magnitude displayed is 2.5.

Coastal Water Temperatures

Place Temperature

Stations

Nearby Weather Stations

Station Location Temp. Windchill Dew Point Humidity Wind Precip. Elev Updated Type